VDPP

Details ICAO VDPP (PNH)
Name Phnom Penh Intl
Region Cambodia
Timezone Asia/Phnom_Penh (UTC+7.0)
Plans Departing 518
Arriving 522
Stats Elevation 40 ft / 12 m (AMSL)
Location 11.546500° 104.844000°
Runways 1
Magnetic Variation 0.545° W
Sunrise 2021-01-20 23:26:21 UTC / 2021-01-21 06:26:21 Local
Sunset 2021-01-21 10:59:37 UTC / 2021-01-21 17:59:37 Local
Advertisement - Login to hide

Runways

ID Width Length Bearing (true/mag) Surface Threshold Overrun Markings Lighting
05 148 ft / 45 m 9,858 ft / 3,005 m 45.57° / 46.12° ASPHALT 0 ft / 0 m 666 ft / 203 m PREC-APP EDGE THRESHOLD
23 148 ft / 45 m 9,858 ft / 3,005 m 225.58° / 226.12° ASPHALT 492 ft / 150 m 653 ft / 199 m PREC-APP EDGE THRESHOLD

Approach Navaids

Runway Type Ident Frequency Range Bearing (true/mag) Slope Elevation
23 GS PNP 109.70 MHz 10 nm / 19 km 225.57° / 226.12° 3.00° 40 ft / 12 m (AMSL)
23 LOC-ILS IPNP 109.70 MHz 18 nm / 33 km 225.62° / 226.17° - 40 ft / 12 m (AMSL)
23 LOC-ILS PNP 109.70 MHz 18 nm / 33 km 225.57° / 226.12° - 40 ft / 12 m (AMSL)
23 GS IPNP 109.70 MHz 10 nm / 19 km 226.19° / 226.73° 3.00° 37 ft / 11 m (AMSL)

Map

Weather


0- 5 10 15 20 25 30 35+ Temperature / °C

Clouds and Precipitation
Forecast for 2021-01-21 06:00 UTC. Updated 5 hours ago

Ground ~20,000 ft ~40,000 ft Winds

METAR

VDPP 210900Z 01005KT 330V050 9999 FEW017 31/16 Q1007

TAF

TAF VDPP 210500Z 2106/2124 03009KT 9999 SCT017= TAF VDSR 210500Z 2106/2124 18007KT 9999 SCT017

Frequencies

Approach 123.80 MHz
Ground 129.00 MHz
Recorded 127.25 MHz ATIS
Tower 118.00 MHz
Warning: Do not use this data for real-world aviation or navigation. No guarantee of current accuracy is given.